createdAt,value
2018-08-17T00:01:31.572Z,74.90
2018-08-17T00:03:58.944Z,75.00
2018-08-17T00:06:26.350Z,75.90
2018-08-17T00:08:53.720Z,75.80
2018-08-17T00:11:21.079Z,74.90
2018-08-17T00:13:48.440Z,75.50
2018-08-17T00:16:15.791Z,75.20
2018-08-17T00:18:43.227Z,74.60
2018-08-17T00:21:10.659Z,75.20
2018-08-17T00:23:38.011Z,75.50
2018-08-17T00:26:05.640Z,75.20
2018-08-17T00:28:32.982Z,74.80
2018-08-17T00:31:00.355Z,74.80
2018-08-17T00:33:27.734Z,74.10
2018-08-17T00:35:55.151Z,75.10
2018-08-17T00:38:22.540Z,75.00
2018-08-17T00:40:49.936Z,75.10
2018-08-17T00:43:17.313Z,74.70
2018-08-17T00:45:44.668Z,74.40
2018-08-17T00:48:12.072Z,74.40
2018-08-17T00:50:39.396Z,74.50
2018-08-17T00:53:06.799Z,75.30
2018-08-17T00:55:34.248Z,75.00
2018-08-17T00:58:01.567Z,74.80
2018-08-17T01:00:28.932Z,74.50
2018-08-17T01:02:56.292Z,74.00
2018-08-17T01:05:23.662Z,74.70
2018-08-17T01:07:51.062Z,74.80
2018-08-17T01:10:18.428Z,74.80
2018-08-17T01:12:45.797Z,75.50
2018-08-17T01:15:13.167Z,75.10
2018-08-17T01:17:40.758Z,74.60
2018-08-17T01:20:09.624Z,74.90
2018-08-17T01:22:37.116Z,74.90
2018-08-17T01:25:04.498Z,74.80
2018-08-17T01:27:31.874Z,75.30
2018-08-17T01:29:59.228Z,74.60
2018-08-17T01:32:26.697Z,75.30
2018-08-17T01:34:54.068Z,75.40
2018-08-17T01:37:21.454Z,75.50
2018-08-17T01:39:48.824Z,75.00
2018-08-17T01:42:16.184Z,74.50
2018-08-17T01:44:43.552Z,74.90
2018-08-17T01:47:10.911Z,75.90
2018-08-17T01:49:38.286Z,75.50
2018-08-17T01:52:05.691Z,75.50
2018-08-17T01:54:33.071Z,75.30
2018-08-17T01:57:00.459Z,75.40
2018-08-17T01:59:27.832Z,75.00
2018-08-17T02:01:55.210Z,74.70
2018-08-17T02:04:22.607Z,75.70
2018-08-17T02:06:49.959Z,76.20
2018-08-17T02:09:17.318Z,75.40
2018-08-17T02:11:44.672Z,75.70
2018-08-17T02:14:12.033Z,75.90
2018-08-17T02:16:39.943Z,75.50
2018-08-17T02:19:07.307Z,75.70
2018-08-17T02:21:34.688Z,75.60
2018-08-17T02:24:02.023Z,75.10
2018-08-17T02:26:29.423Z,75.00
2018-08-17T02:28:56.804Z,75.80
2018-08-17T02:31:24.188Z,76.30
2018-08-17T02:33:51.888Z,76.20
2018-08-17T02:36:19.271Z,75.70
2018-08-17T02:38:46.659Z,76.30
2018-08-17T02:41:14.039Z,76.40
2018-08-17T02:43:41.416Z,75.70
2018-08-17T02:46:08.787Z,75.10
2018-08-17T02:48:36.143Z,76.40
2018-08-17T02:51:03.508Z,75.90
2018-08-17T02:53:30.896Z,75.90
2018-08-17T02:55:58.271Z,75.70
2018-08-17T02:58:25.639Z,75.90
2018-08-17T03:00:53.034Z,77.20
2018-08-17T03:03:20.395Z,76.80
2018-08-17T03:05:47.763Z,76.10
2018-08-17T03:08:15.120Z,76.80
2018-08-17T03:10:42.497Z,76.10
2018-08-17T03:13:09.852Z,76.60
2018-08-17T03:15:37.222Z,75.80
2018-08-17T03:18:04.640Z,75.90
2018-08-17T03:20:31.997Z,75.80
2018-08-17T03:22:59.533Z,76.70
2018-08-17T03:25:26.901Z,76.20
2018-08-17T03:27:54.284Z,75.30
2018-08-17T03:30:21.666Z,75.20
2018-08-17T03:32:49.019Z,76.90
2018-08-17T03:35:16.399Z,76.00
2018-08-17T03:37:43.784Z,75.90
2018-08-17T03:40:11.146Z,75.70
2018-08-17T03:42:38.532Z,76.10
2018-08-17T03:45:05.897Z,76.20
2018-08-17T03:47:33.254Z,76.60
2018-08-17T03:50:00.619Z,76.20
2018-08-17T03:52:27.990Z,75.80
2018-08-17T03:54:55.364Z,75.70
2018-08-17T03:57:22.784Z,77.20
2018-08-17T03:59:50.322Z,76.30
2018-08-17T04:02:17.715Z,76.00
2018-08-17T04:04:45.071Z,75.70
2018-08-17T04:07:12.453Z,75.60
2018-08-17T04:09:39.815Z,75.50
2018-08-17T04:12:07.204Z,75.70
2018-08-17T04:14:34.575Z,76.10
2018-08-17T04:17:01.948Z,76.40
2018-08-17T04:19:29.321Z,76.50
2018-08-17T04:21:56.688Z,76.00
2018-08-17T04:24:24.062Z,76.00
2018-08-17T04:26:51.428Z,75.80
2018-08-17T04:29:18.820Z,75.90
2018-08-17T04:31:46.202Z,76.00
2018-08-17T04:34:13.571Z,76.20
2018-08-17T04:36:40.938Z,76.10
2018-08-17T04:39:08.328Z,75.80
2018-08-17T04:41:35.699Z,76.60
2018-08-17T04:44:03.064Z,76.50
2018-08-17T04:46:30.447Z,76.10
2018-08-17T04:48:57.819Z,75.90
2018-08-17T04:51:25.203Z,76.10
2018-08-17T04:53:52.589Z,77.60
2018-08-17T04:56:19.944Z,77.20
2018-08-17T04:58:47.340Z,76.60
2018-08-17T05:01:14.703Z,76.00
2018-08-17T05:03:42.074Z,76.10
2018-08-17T05:06:09.423Z,76.40
2018-08-17T05:08:36.794Z,76.30
2018-08-17T05:11:04.171Z,75.90
2018-08-17T05:13:31.579Z,75.90
2018-08-17T05:15:58.951Z,77.00
2018-08-17T05:18:26.323Z,76.80
2018-08-17T05:20:53.694Z,76.80
2018-08-17T05:23:21.114Z,76.90
2018-08-17T05:25:48.490Z,76.20
2018-08-17T05:28:15.864Z,76.90
2018-08-17T05:30:43.405Z,77.30
2018-08-17T05:33:11.383Z,76.60
2018-08-17T05:35:38.723Z,76.30
2018-08-17T05:38:06.067Z,76.50
2018-08-17T05:40:33.447Z,76.60
2018-08-17T05:43:00.832Z,76.30
2018-08-17T05:45:28.164Z,76.10
2018-08-17T05:47:55.584Z,76.30
2018-08-17T05:50:22.940Z,76.90
2018-08-17T05:52:50.286Z,76.30
2018-08-17T05:55:17.659Z,76.80
2018-08-17T05:57:45.011Z,76.80
2018-08-17T06:00:12.432Z,76.20
2018-08-17T06:02:39.808Z,76.50
2018-08-17T06:05:07.990Z,77.60
2018-08-17T06:07:35.579Z,77.60
2018-08-17T06:10:03.366Z,77.30
2018-08-17T06:12:30.733Z,76.50
2018-08-17T06:14:58.071Z,76.50
2018-08-17T06:17:25.513Z,76.60
2018-08-17T06:19:53.157Z,76.30
2018-08-17T06:22:20.911Z,76.60
2018-08-17T06:24:49.010Z,76.80
2018-08-17T06:27:16.374Z,77.50
2018-08-17T06:29:43.824Z,77.10
2018-08-17T06:32:11.274Z,77.40
2018-08-17T06:34:39.223Z,77.10
2018-08-17T06:37:06.855Z,76.80
2018-08-17T06:39:34.215Z,76.50
2018-08-17T06:42:01.599Z,76.40
2018-08-17T06:44:28.979Z,76.20
2018-08-17T06:46:56.368Z,76.10
2018-08-17T06:49:23.727Z,76.50
2018-08-17T06:51:51.112Z,77.30
2018-08-17T06:54:18.708Z,76.10
2018-08-17T06:56:46.091Z,76.60
2018-08-17T06:59:13.479Z,76.30
2018-08-17T07:01:40.887Z,76.80
2018-08-17T07:04:08.276Z,76.20
2018-08-17T07:06:35.638Z,76.10
2018-08-17T07:09:04.350Z,75.70
2018-08-17T07:11:31.734Z,75.70
2018-08-17T07:13:59.097Z,75.70
2018-08-17T07:16:26.454Z,76.00
2018-08-17T07:18:53.828Z,76.00
2018-08-17T07:21:21.227Z,75.80
2018-08-17T07:23:48.579Z,76.80
2018-08-17T07:26:15.939Z,75.60
2018-08-17T07:28:43.783Z,75.40
2018-08-17T07:31:11.140Z,75.50
2018-08-17T07:33:38.504Z,75.30
2018-08-17T07:36:05.876Z,76.00
2018-08-17T07:38:33.259Z,75.90
2018-08-17T07:41:00.640Z,74.90
2018-08-17T07:43:27.999Z,74.80
2018-08-17T07:45:55.360Z,75.10
2018-08-17T07:48:22.845Z,74.60
2018-08-17T07:50:50.115Z,74.20
2018-08-17T07:53:17.499Z,74.00
2018-08-17T07:55:44.901Z,73.90
2018-08-17T07:58:12.293Z,73.60
2018-08-17T08:00:39.692Z,73.50
2018-08-17T08:03:07.075Z,72.90
2018-08-17T08:05:35.138Z,72.30
2018-08-17T08:08:02.521Z,72.90
2018-08-17T08:10:29.904Z,73.00
2018-08-17T08:12:57.275Z,72.20
2018-08-17T08:15:24.656Z,72.10
2018-08-17T08:17:52.004Z,72.70
2018-08-17T08:20:35.767Z,72.70
2018-08-17T08:23:15.005Z,72.70
2018-08-17T08:25:42.361Z,71.50
2018-08-17T08:28:09.778Z,70.20
2018-08-17T08:30:37.126Z,70.90
2018-08-17T08:33:04.506Z,71.40
2018-08-17T08:35:31.919Z,71.40
2018-08-17T08:37:59.367Z,71.60
2018-08-17T08:40:26.787Z,71.00
2018-08-17T08:42:54.364Z,70.30
2018-08-17T08:45:21.799Z,70.60
2018-08-17T08:47:49.184Z,71.10
2018-08-17T08:50:16.574Z,68.90
2018-08-17T08:52:43.956Z,68.00
2018-08-17T08:55:11.420Z,68.50
2018-08-17T08:57:38.999Z,68.60
2018-08-17T09:00:07.279Z,68.90
2018-08-17T09:02:34.665Z,68.20
2018-08-17T09:05:02.053Z,67.90
2018-08-17T09:07:29.415Z,67.40
2018-08-17T09:09:56.811Z,66.90
2018-08-17T09:12:24.273Z,67.60
2018-08-17T09:14:51.660Z,68.30
2018-08-17T09:17:19.077Z,67.60
2018-08-17T09:19:46.466Z,67.60
2018-08-17T09:22:13.843Z,66.30
2018-08-17T09:24:41.220Z,66.30
2018-08-17T09:27:08.627Z,66.30
2018-08-17T09:29:36.141Z,65.70
2018-08-17T09:32:03.551Z,66.30
2018-08-17T09:34:31.629Z,66.80
2018-08-17T09:36:58.989Z,67.50
2018-08-17T09:39:26.820Z,66.80
2018-08-17T09:41:54.282Z,64.70
2018-08-17T09:44:21.915Z,64.80
2018-08-17T09:46:49.291Z,64.90
2018-08-17T09:49:16.908Z,63.00
2018-08-17T09:51:44.285Z,60.60
2018-08-17T09:54:11.647Z,62.50
2018-08-17T09:56:39.016Z,61.60
2018-08-17T09:59:06.672Z,61.10
2018-08-17T10:01:39.715Z,63.80
2018-08-17T10:04:12.812Z,61.90
2018-08-17T10:06:46.021Z,62.70
2018-08-17T10:09:19.149Z,62.10
2018-08-17T10:11:48.515Z,60.40
2018-08-17T10:14:15.915Z,62.70
2018-08-17T10:16:43.300Z,63.10
2018-08-17T10:19:10.671Z,60.70
2018-08-17T10:21:42.240Z,60.80
2018-08-17T10:24:09.484Z,63.20
2018-08-17T10:26:36.936Z,61.80
2018-08-17T10:29:04.291Z,61.50
2018-08-17T10:31:32.836Z,62.10
2018-08-17T10:34:00.227Z,61.80
2018-08-17T10:36:27.572Z,61.60
2018-08-17T10:38:54.938Z,60.90
2018-08-17T10:41:22.378Z,61.30
2018-08-17T10:43:49.728Z,61.40
2018-08-17T10:46:17.108Z,58.80
2018-08-17T10:48:44.510Z,55.80
2018-08-17T10:51:11.897Z,57.20
2018-08-17T10:53:43.589Z,58.00
2018-08-17T10:56:10.934Z,57.50
2018-08-17T10:58:38.280Z,59.00
2018-08-17T11:01:05.884Z,56.90
2018-08-17T11:03:33.260Z,58.60
2018-08-17T11:06:00.686Z,57.60
2018-08-17T11:08:28.887Z,56.80
2018-08-17T11:10:56.287Z,57.90
2018-08-17T11:13:23.716Z,56.90
2018-08-17T11:15:51.071Z,56.20
2018-08-17T11:18:18.561Z,57.20
2018-08-17T11:20:45.944Z,55.30
2018-08-17T11:23:13.327Z,57.20
2018-08-17T11:25:40.680Z,56.10
2018-08-17T11:28:08.063Z,56.20
2018-08-17T11:30:35.443Z,54.80
2018-08-17T11:33:02.879Z,55.40
2018-08-17T11:35:30.279Z,56.50
2018-08-17T11:37:57.656Z,53.70
2018-08-17T11:40:25.030Z,54.80
2018-08-17T11:42:52.511Z,54.30
2018-08-17T11:45:21.141Z,52.80
2018-08-17T11:47:48.887Z,54.50
2018-08-17T11:50:17.823Z,54.40
2018-08-17T11:53:00.010Z,52.90
2018-08-17T11:55:29.298Z,54.90
2018-08-17T11:57:56.647Z,55.00
2018-08-17T12:00:25.028Z,54.60
2018-08-17T12:02:52.409Z,53.30
2018-08-17T12:05:19.806Z,54.00
2018-08-17T12:07:47.696Z,52.70
2018-08-17T12:10:15.119Z,52.90
2018-08-17T12:12:43.435Z,53.40
2018-08-17T12:15:11.402Z,52.90
2018-08-17T12:17:38.767Z,53.50
2018-08-17T12:20:06.230Z,53.00
2018-08-17T12:22:33.583Z,51.10
2018-08-17T12:25:01.455Z,51.90
2018-08-17T12:27:28.892Z,50.90
2018-08-17T12:29:56.269Z,49.50
2018-08-17T12:32:23.912Z,49.40
2018-08-17T12:34:51.470Z,51.70
2018-08-17T12:37:19.048Z,51.40
2018-08-17T12:39:46.523Z,51.20
2018-08-17T12:42:13.882Z,51.90
2018-08-17T12:44:41.253Z,51.30
2018-08-17T12:47:08.615Z,51.30
2018-08-17T12:49:35.967Z,51.50
2018-08-17T12:52:03.537Z,50.60
2018-08-17T12:54:33.808Z,50.10
2018-08-17T12:57:02.063Z,50.70
2018-08-17T12:59:30.036Z,50.70
2018-08-17T13:01:57.429Z,49.40
2018-08-17T13:04:25.667Z,49.40
2018-08-17T13:06:53.078Z,49.60
2018-08-17T13:09:20.719Z,48.70
2018-08-17T13:11:53.795Z,50.30
2018-08-17T13:14:21.212Z,48.30
2018-08-17T13:16:48.539Z,48.30
2018-08-17T13:19:15.916Z,48.80
2018-08-17T13:21:43.268Z,49.20
2018-08-17T13:24:10.627Z,46.50
2018-08-17T13:26:37.970Z,43.70
2018-08-17T13:29:05.343Z,45.60
2018-08-17T13:31:32.692Z,46.20
2018-08-17T13:34:00.302Z,47.60
2018-08-17T13:36:27.702Z,47.00
2018-08-17T13:38:55.051Z,46.20
2018-08-17T13:41:22.650Z,45.20
2018-08-17T13:43:50.229Z,46.10
2018-08-17T13:46:17.618Z,45.60
2018-08-17T13:48:45.824Z,47.10
2018-08-17T13:51:13.404Z,46.60
2018-08-17T13:53:40.779Z,46.50
2018-08-17T13:56:09.349Z,46.10
2018-08-17T13:58:36.904Z,44.70
2018-08-17T14:01:04.259Z,44.40
2018-08-17T14:03:32.741Z,45.20
2018-08-17T14:06:00.106Z,45.10
2018-08-17T14:08:27.536Z,46.40
2018-08-17T14:10:54.864Z,47.50
2018-08-17T14:13:22.239Z,46.50
2018-08-17T14:15:49.647Z,45.10
2018-08-17T14:18:17.003Z,45.40
2018-08-17T14:20:44.395Z,44.10
2018-08-17T14:23:11.765Z,45.60
2018-08-17T14:25:39.127Z,46.70
2018-08-17T14:28:06.479Z,47.00
2018-08-17T14:30:33.824Z,45.60
2018-08-17T14:33:01.162Z,47.30
2018-08-17T14:35:28.507Z,46.00
2018-08-17T14:37:55.844Z,46.60
2018-08-17T14:40:23.299Z,45.90
2018-08-17T14:42:50.624Z,46.50
2018-08-17T14:45:17.992Z,47.20
2018-08-17T14:47:45.380Z,46.40
2018-08-17T14:50:13.528Z,46.00
2018-08-17T14:52:41.292Z,45.80
2018-08-17T14:55:09.350Z,47.40
2018-08-17T14:57:36.779Z,46.40
2018-08-17T15:00:09.091Z,46.90
2018-08-17T15:02:36.741Z,47.40
2018-08-17T15:05:04.959Z,47.30
2018-08-17T15:07:32.344Z,47.30
2018-08-17T15:09:59.687Z,47.10
2018-08-17T15:12:27.035Z,48.20
2018-08-17T15:14:54.399Z,47.50
2018-08-17T15:17:21.787Z,47.70
2018-08-17T15:19:49.151Z,49.30
2018-08-17T15:22:16.527Z,48.70
2018-08-17T15:24:43.925Z,48.70
2018-08-17T15:27:11.296Z,48.60
2018-08-17T15:29:38.660Z,48.10
2018-08-17T15:32:06.062Z,48.40
2018-08-17T15:34:33.411Z,49.40
2018-08-17T15:37:00.768Z,49.00
2018-08-17T15:39:28.136Z,48.40
2018-08-17T15:41:55.478Z,48.40
2018-08-17T15:44:25.678Z,48.80
2018-08-17T15:46:54.020Z,49.40
2018-08-17T15:49:26.853Z,49.40
2018-08-17T15:51:54.330Z,49.50
2018-08-17T15:54:21.682Z,48.70
2018-08-17T15:56:49.027Z,49.30
2018-08-17T15:59:16.415Z,48.10
2018-08-17T16:01:43.859Z,49.00
2018-08-17T16:04:11.287Z,48.30
2018-08-17T16:06:38.919Z,48.20
2018-08-17T16:09:08.663Z,48.00
2018-08-17T16:11:36.040Z,49.30
2018-08-17T16:14:03.647Z,49.30
2018-08-17T16:16:31.050Z,50.20
2018-08-17T16:18:58.440Z,49.00
2018-08-17T16:21:25.802Z,49.50
2018-08-17T16:23:53.222Z,49.00
2018-08-17T16:26:20.642Z,49.40
2018-08-17T16:28:48.023Z,50.50
2018-08-17T16:31:15.398Z,49.50
2018-08-17T16:33:42.763Z,49.30
2018-08-17T16:36:10.131Z,47.80
2018-08-17T16:38:38.128Z,49.30
2018-08-17T16:41:06.003Z,49.60
2018-08-17T16:43:43.721Z,49.00
2018-08-17T16:46:11.546Z,50.10
2018-08-17T16:48:39.829Z,49.80
2018-08-17T16:51:07.230Z,49.20
2018-08-17T16:53:34.717Z,49.80
2018-08-17T16:56:02.128Z,49.70
2018-08-17T16:58:29.503Z,49.60
2018-08-17T17:00:57.028Z,49.60
2018-08-17T17:03:24.447Z,49.80
2018-08-17T17:05:58.133Z,50.00
2018-08-17T17:08:25.543Z,50.80
2018-08-17T17:10:53.514Z,50.80
2018-08-17T17:13:21.008Z,49.30
2018-08-17T17:15:50.837Z,50.00
2018-08-17T17:18:18.518Z,50.90
2018-08-17T17:20:45.983Z,51.10
2018-08-17T17:23:13.343Z,51.30
2018-08-17T17:25:41.034Z,50.00
2018-08-17T17:28:08.794Z,50.50
2018-08-17T17:30:43.583Z,50.80
2018-08-17T17:33:11.192Z,50.40
2018-08-17T17:35:39.754Z,50.40
2018-08-17T17:38:07.659Z,50.40
2018-08-17T17:40:35.119Z,49.90
2018-08-17T17:43:02.666Z,50.50
2018-08-17T17:45:30.060Z,50.60
2018-08-17T17:47:59.396Z,50.60
2018-08-17T17:50:26.789Z,51.00
2018-08-17T17:52:54.357Z,50.40
2018-08-17T17:55:22.076Z,50.70
2018-08-17T17:57:51.290Z,51.10
2018-08-17T18:00:18.679Z,50.40
2018-08-17T18:02:47.211Z,51.70
2018-08-17T18:05:14.640Z,51.50
2018-08-17T18:07:51.610Z,51.60
2018-08-17T18:10:20.598Z,51.20
2018-08-17T18:12:48.292Z,51.70
2018-08-17T18:15:15.703Z,51.20
2018-08-17T18:17:43.064Z,51.30
2018-08-17T18:20:11.297Z,51.30
2018-08-17T18:22:38.724Z,50.70
2018-08-17T18:25:11.763Z,51.40
2018-08-17T18:27:39.234Z,51.20
2018-08-17T18:30:06.650Z,51.30
2018-08-17T18:32:34.079Z,51.30
2018-08-17T18:35:01.615Z,51.90
2018-08-17T18:37:29.124Z,51.50
2018-08-17T18:39:56.547Z,51.70
2018-08-17T18:42:23.911Z,52.10
2018-08-17T18:44:51.578Z,52.40
2018-08-17T18:47:18.923Z,52.50
2018-08-17T18:49:46.248Z,52.80
2018-08-17T18:52:13.611Z,52.90
2018-08-17T18:54:41.132Z,53.00
2018-08-17T18:57:08.509Z,53.30
2018-08-17T18:59:36.140Z,53.70
2018-08-17T19:02:03.639Z,53.60
2018-08-17T19:04:31.591Z,53.70
2018-08-17T19:06:59.428Z,53.50
2018-08-17T19:09:27.335Z,54.10
2018-08-17T19:11:54.723Z,54.20
2018-08-17T19:14:22.196Z,54.00
2018-08-17T19:16:49.718Z,54.40
2018-08-17T19:19:17.286Z,54.70
2018-08-17T19:21:44.715Z,54.80
2018-08-17T19:24:12.652Z,54.80
2018-08-17T19:26:40.032Z,54.80
2018-08-17T19:29:07.617Z,55.00
2018-08-17T19:31:36.008Z,55.00
2018-08-17T19:34:03.752Z,55.30
2018-08-17T19:36:31.496Z,55.70
2018-08-17T19:38:59.192Z,55.60
2018-08-17T19:41:26.684Z,55.80
2018-08-17T19:43:54.091Z,55.80
2018-08-17T19:46:21.874Z,55.90
2018-08-17T19:48:49.611Z,56.00
2018-08-17T19:51:18.299Z,56.10
2018-08-17T19:53:45.985Z,56.20
2018-08-17T19:56:13.938Z,56.10
2018-08-17T19:58:41.933Z,56.30
2018-08-17T20:01:09.512Z,56.60
2018-08-17T20:03:37.000Z,56.10
2018-08-17T20:06:04.405Z,56.60
2018-08-17T20:08:31.818Z,56.70
2018-08-17T20:10:59.211Z,56.60
2018-08-17T20:13:26.678Z,56.70
2018-08-17T20:15:54.094Z,56.60
2018-08-17T20:18:21.909Z,56.80
2018-08-17T20:20:49.312Z,56.60
2018-08-17T20:23:16.761Z,56.70
2018-08-17T20:25:44.287Z,56.90
2018-08-17T20:28:11.614Z,57.10
2018-08-17T20:30:38.990Z,57.30
2018-08-17T20:33:32.684Z,57.30
2018-08-17T20:36:00.832Z,57.50
2018-08-17T20:38:28.204Z,57.20
2018-08-17T20:40:57.948Z,57.30
2018-08-17T20:43:25.767Z,57.40
2018-08-17T20:45:53.115Z,58.10
2018-08-17T20:48:20.485Z,57.50
2018-08-17T20:50:47.824Z,57.90
2018-08-17T20:53:18.104Z,57.70
2018-08-17T20:55:45.512Z,57.80
2018-08-17T20:58:12.906Z,58.50
2018-08-17T21:00:40.393Z,58.10
2018-08-17T21:03:07.766Z,58.90
2018-08-17T21:05:35.150Z,57.90
2018-08-17T21:08:02.579Z,58.10
2018-08-17T21:10:29.943Z,58.20
2018-08-17T21:12:57.336Z,58.00
2018-08-17T21:15:25.281Z,58.40
2018-08-17T21:17:52.647Z,58.20
2018-08-17T21:20:20.043Z,58.90
2018-08-17T21:22:47.409Z,58.40
2018-08-17T21:25:14.790Z,59.20
2018-08-17T21:27:42.164Z,58.60
2018-08-17T21:30:09.983Z,58.70
2018-08-17T21:32:37.350Z,58.90
2018-08-17T21:35:06.292Z,59.00
2018-08-17T21:37:33.664Z,59.20
2018-08-17T21:40:01.027Z,59.20
2018-08-17T21:42:28.483Z,59.20
2018-08-17T21:44:55.879Z,59.60
2018-08-17T21:47:23.272Z,59.30
2018-08-17T21:49:53.809Z,59.50
2018-08-17T21:52:23.539Z,59.70
2018-08-17T21:54:50.923Z,59.80
2018-08-17T21:57:18.301Z,59.60
2018-08-17T21:59:47.223Z,59.60
2018-08-17T22:02:14.740Z,59.80
2018-08-17T22:04:42.088Z,59.40
2018-08-17T22:07:13.641Z,60.00
2018-08-17T22:09:42.287Z,59.70
2018-08-17T22:12:10.340Z,59.90
2018-08-17T22:14:38.234Z,60.40
2018-08-17T22:17:05.724Z,60.30
2018-08-17T22:19:37.823Z,61.90
2018-08-17T22:22:06.634Z,60.80
2018-08-17T22:24:38.605Z,60.80
2018-08-17T22:27:05.987Z,60.80
2018-08-17T22:29:33.381Z,60.80
2018-08-17T22:32:00.748Z,60.90
2018-08-17T22:34:28.123Z,60.60
2018-08-17T22:36:55.510Z,61.20
2018-08-17T22:39:22.875Z,61.20
2018-08-17T22:41:50.285Z,61.10
2018-08-17T22:44:23.083Z,61.70
2018-08-17T22:47:04.158Z,61.30
2018-08-17T22:49:31.935Z,61.60
2018-08-17T22:51:59.363Z,62.20
2018-08-17T22:54:26.719Z,62.10
2018-08-17T22:56:54.075Z,61.40
2018-08-17T22:59:21.439Z,62.10
2018-08-17T23:01:48.805Z,62.00
2018-08-17T23:04:16.192Z,62.50
2018-08-17T23:06:43.733Z,63.10
2018-08-17T23:09:10.949Z,62.70
2018-08-17T23:11:38.334Z,62.30
2018-08-17T23:14:14.271Z,62.80
2018-08-17T23:16:42.248Z,62.10
2018-08-17T23:19:09.647Z,62.10
2018-08-17T23:21:37.265Z,62.30
2018-08-17T23:24:04.651Z,62.30
2018-08-17T23:26:32.036Z,62.90
2018-08-17T23:28:59.444Z,63.30
2018-08-17T23:31:26.851Z,62.90
2018-08-17T23:33:54.860Z,63.20
2018-08-17T23:36:22.262Z,63.90
2018-08-17T23:38:49.621Z,62.90
2018-08-17T23:41:17.084Z,64.00
2018-08-17T23:43:44.434Z,63.10
2018-08-17T23:46:11.799Z,63.50
2018-08-17T23:48:39.248Z,63.70
2018-08-17T23:51:06.691Z,63.50
2018-08-17T23:53:34.138Z,64.60
2018-08-17T23:56:01.505Z,62.80
2018-08-17T23:58:28.868Z,63.50
